sensor_id;sensor_type;location;lat;lon;timestamp;P1;durP1;ratioP1;P2;durP2;ratioP2
8482;SDS011;4278;42.668;23.312;2022-08-03T00:00:50;3.60;;;2.40;;
8482;SDS011;4278;42.668;23.312;2022-08-03T00:03:17;3.47;;;2.20;;
8482;SDS011;4278;42.668;23.312;2022-08-03T00:05:43;3.22;;;2.30;;
8482;SDS011;4278;42.668;23.312;2022-08-03T00:08:10;5.13;;;2.47;;
8482;SDS011;4278;42.668;23.312;2022-08-03T00:10:37;2.88;;;2.30;;
8482;SDS011;4278;42.668;23.312;2022-08-03T00:13:04;3.40;;;2.63;;
8482;SDS011;4278;42.668;23.312;2022-08-03T00:15:31;2.55;;;2.25;;
8482;SDS011;4278;42.668;23.312;2022-08-03T00:17:58;3.58;;;2.42;;
8482;SDS011;4278;42.668;23.312;2022-08-03T00:20:24;2.85;;;2.10;;
8482;SDS011;4278;42.668;23.312;2022-08-03T00:22:51;2.90;;;2.00;;
8482;SDS011;4278;42.668;23.312;2022-08-03T00:25:17;5.22;;;2.47;;
8482;SDS011;4278;42.668;23.312;2022-08-03T00:27:44;5.63;;;2.17;;
8482;SDS011;4278;42.668;23.312;2022-08-03T00:30:12;2.45;;;2.25;;
8482;SDS011;4278;42.668;23.312;2022-08-03T00:32:38;3.30;;;2.40;;
8482;SDS011;4278;42.668;23.312;2022-08-03T00:35:05;5.03;;;2.30;;
8482;SDS011;4278;42.668;23.312;2022-08-03T00:37:32;3.00;;;2.25;;
8482;SDS011;4278;42.668;23.312;2022-08-03T00:39:59;3.33;;;2.08;;
8482;SDS011;4278;42.668;23.312;2022-08-03T00:42:25;5.13;;;2.20;;
8482;SDS011;4278;42.668;23.312;2022-08-03T00:44:52;5.75;;;2.47;;
8482;SDS011;4278;42.668;23.312;2022-08-03T00:47:20;3.90;;;2.20;;
8482;SDS011;4278;42.668;23.312;2022-08-03T00:49:46;4.05;;;2.30;;
8482;SDS011;4278;42.668;23.312;2022-08-03T00:52:13;3.20;;;2.00;;
8482;SDS011;4278;42.668;23.312;2022-08-03T00:54:40;2.88;;;1.90;;
8482;SDS011;4278;42.668;23.312;2022-08-03T00:57:07;2.47;;;2.28;;
8482;SDS011;4278;42.668;23.312;2022-08-03T00:59:34;2.20;;;2.00;;
8482;SDS011;4278;42.668;23.312;2022-08-03T01:02:02;5.93;;;2.40;;
8482;SDS011;4278;42.668;23.312;2022-08-03T01:04:30;2.88;;;2.10;;
8482;SDS011;4278;42.668;23.312;2022-08-03T01:06:59;3.10;;;2.15;;
8482;SDS011;4278;42.668;23.312;2022-08-03T01:09:29;3.80;;;2.20;;
8482;SDS011;4278;42.668;23.312;2022-08-03T01:12:02;3.10;;;2.38;;
8482;SDS011;4278;42.668;23.312;2022-08-03T01:14:32;3.30;;;2.38;;
8482;SDS011;4278;42.668;23.312;2022-08-03T01:17:00;4.82;;;2.83;;
8482;SDS011;4278;42.668;23.312;2022-08-03T01:19:38;2.17;;;1.98;;
8482;SDS011;4278;42.668;23.312;2022-08-03T01:22:09;2.72;;;2.25;;
8482;SDS011;4278;42.668;23.312;2022-08-03T01:24:43;4.20;;;2.28;;
8482;SDS011;4278;42.668;23.312;2022-08-03T01:27:14;2.72;;;2.40;;
8482;SDS011;4278;42.668;23.312;2022-08-03T01:32:36;3.53;;;2.00;;
8482;SDS011;4278;42.668;23.312;2022-08-03T01:35:06;7.68;;;2.42;;
8482;SDS011;4278;42.668;23.312;2022-08-03T01:37:36;3.95;;;2.53;;
8482;SDS011;4278;42.668;23.312;2022-08-03T01:40:04;4.18;;;2.20;;
8482;SDS011;4278;42.668;23.312;2022-08-03T01:42:31;6.10;;;2.40;;
8482;SDS011;4278;42.668;23.312;2022-08-03T01:44:59;2.83;;;2.45;;
8482;SDS011;4278;42.668;23.312;2022-08-03T01:47:26;4.47;;;2.42;;
8482;SDS011;4278;42.668;23.312;2022-08-03T01:49:55;2.50;;;2.13;;
8482;SDS011;4278;42.668;23.312;2022-08-03T01:52:22;2.47;;;2.22;;
8482;SDS011;4278;42.668;23.312;2022-08-03T01:54:50;4.80;;;2.53;;
8482;SDS011;4278;42.668;23.312;2022-08-03T01:57:17;2.70;;;2.20;;
8482;SDS011;4278;42.668;23.312;2022-08-03T01:59:44;3.08;;;1.83;;
8482;SDS011;4278;42.668;23.312;2022-08-03T02:02:13;3.78;;;2.55;;
8482;SDS011;4278;42.668;23.312;2022-08-03T02:04:41;4.82;;;2.40;;
8482;SDS011;4278;42.668;23.312;2022-08-03T02:07:10;4.55;;;2.63;;
8482;SDS011;4278;42.668;23.312;2022-08-03T02:09:37;4.22;;;2.17;;
8482;SDS011;4278;42.668;23.312;2022-08-03T02:12:06;5.30;;;2.60;;
8482;SDS011;4278;42.668;23.312;2022-08-03T02:14:33;4.07;;;2.17;;
8482;SDS011;4278;42.668;23.312;2022-08-03T02:17:00;2.60;;;2.40;;
8482;SDS011;4278;42.668;23.312;2022-08-03T02:19:27;6.35;;;2.70;;
8482;SDS011;4278;42.668;23.312;2022-08-03T02:21:53;5.25;;;2.42;;
8482;SDS011;4278;42.668;23.312;2022-08-03T02:24:22;3.40;;;2.20;;
8482;SDS011;4278;42.668;23.312;2022-08-03T02:26:48;3.83;;;2.10;;
8482;SDS011;4278;42.668;23.312;2022-08-03T02:29:17;3.10;;;2.27;;
8482;SDS011;4278;42.668;23.312;2022-08-03T02:31:45;4.70;;;2.50;;
8482;SDS011;4278;42.668;23.312;2022-08-03T02:34:13;2.67;;;2.40;;
8482;SDS011;4278;42.668;23.312;2022-08-03T02:36:41;3.10;;;2.30;;
8482;SDS011;4278;42.668;23.312;2022-08-03T02:39:09;4.50;;;2.20;;
8482;SDS011;4278;42.668;23.312;2022-08-03T02:41:40;3.42;;;2.40;;
8482;SDS011;4278;42.668;23.312;2022-08-03T02:44:07;4.40;;;2.10;;
8482;SDS011;4278;42.668;23.312;2022-08-03T02:46:36;2.50;;;2.30;;
8482;SDS011;4278;42.668;23.312;2022-08-03T02:49:04;3.00;;;2.20;;
8482;SDS011;4278;42.668;23.312;2022-08-03T02:51:32;3.10;;;2.35;;
8482;SDS011;4278;42.668;23.312;2022-08-03T02:54:01;3.43;;;2.40;;
8482;SDS011;4278;42.668;23.312;2022-08-03T02:56:28;4.60;;;2.13;;
8482;SDS011;4278;42.668;23.312;2022-08-03T02:58:57;2.83;;;2.40;;
8482;SDS011;4278;42.668;23.312;2022-08-03T03:01:25;3.30;;;2.10;;
8482;SDS011;4278;42.668;23.312;2022-08-03T03:03:52;2.97;;;2.03;;
8482;SDS011;4278;42.668;23.312;2022-08-03T03:06:19;4.00;;;2.37;;
8482;SDS011;4278;42.668;23.312;2022-08-03T03:08:46;3.53;;;2.13;;
8482;SDS011;4278;42.668;23.312;2022-08-03T03:11:14;6.70;;;2.10;;
8482;SDS011;4278;42.668;23.312;2022-08-03T03:13:41;2.87;;;2.27;;
8482;SDS011;4278;42.668;23.312;2022-08-03T03:16:10;3.78;;;2.10;;
8482;SDS011;4278;42.668;23.312;2022-08-03T03:18:37;3.10;;;2.27;;
8482;SDS011;4278;42.668;23.312;2022-08-03T03:21:05;2.90;;;2.43;;
8482;SDS011;4278;42.668;23.312;2022-08-03T03:23:33;5.83;;;2.50;;
8482;SDS011;4278;42.668;23.312;2022-08-03T03:26:00;5.07;;;2.33;;
8482;SDS011;4278;42.668;23.312;2022-08-03T03:28:27;3.03;;;2.20;;
8482;SDS011;4278;42.668;23.312;2022-08-03T03:30:53;3.67;;;2.40;;
8482;SDS011;4278;42.668;23.312;2022-08-03T03:33:21;3.15;;;2.50;;
8482;SDS011;4278;42.668;23.312;2022-08-03T03:35:48;2.27;;;2.07;;
8482;SDS011;4278;42.668;23.312;2022-08-03T03:38:15;2.63;;;2.13;;
8482;SDS011;4278;42.668;23.312;2022-08-03T03:40:42;3.50;;;2.60;;
8482;SDS011;4278;42.668;23.312;2022-08-03T03:43:09;3.77;;;2.40;;
8482;SDS011;4278;42.668;23.312;2022-08-03T03:45:36;2.87;;;2.40;;
8482;SDS011;4278;42.668;23.312;2022-08-03T03:48:05;3.53;;;2.22;;
8482;SDS011;4278;42.668;23.312;2022-08-03T03:50:33;4.07;;;2.53;;
8482;SDS011;4278;42.668;23.312;2022-08-03T03:53:01;4.43;;;2.70;;
8482;SDS011;4278;42.668;23.312;2022-08-03T03:55:27;4.10;;;2.78;;
8482;SDS011;4278;42.668;23.312;2022-08-03T03:57:54;3.40;;;2.80;;
8482;SDS011;4278;42.668;23.312;2022-08-03T04:00:21;3.93;;;2.60;;
8482;SDS011;4278;42.668;23.312;2022-08-03T04:02:48;4.03;;;2.17;;
8482;SDS011;4278;42.668;23.312;2022-08-03T04:05:14;6.87;;;3.20;;
8482;SDS011;4278;42.668;23.312;2022-08-03T04:08:15;8.05;;;3.97;;
8482;SDS011;4278;42.668;23.312;2022-08-03T04:11:02;5.90;;;3.50;;
8482;SDS011;4278;42.668;23.312;2022-08-03T04:13:29;7.45;;;4.45;;
8482;SDS011;4278;42.668;23.312;2022-08-03T04:15:57;8.98;;;4.63;;
8482;SDS011;4278;42.668;23.312;2022-08-03T04:18:24;6.40;;;4.30;;
8482;SDS011;4278;42.668;23.312;2022-08-03T04:20:52;7.05;;;4.32;;
8482;SDS011;4278;42.668;23.312;2022-08-03T04:23:21;8.65;;;4.15;;
8482;SDS011;4278;42.668;23.312;2022-08-03T04:25:49;7.97;;;4.40;;
8482;SDS011;4278;42.668;23.312;2022-08-03T04:28:16;9.02;;;4.15;;
8482;SDS011;4278;42.668;23.312;2022-08-03T04:30:45;10.90;;;3.88;;
8482;SDS011;4278;42.668;23.312;2022-08-03T04:33:13;7.40;;;3.70;;
8482;SDS011;4278;42.668;23.312;2022-08-03T04:35:40;8.50;;;3.65;;
8482;SDS011;4278;42.668;23.312;2022-08-03T04:38:08;6.18;;;3.22;;
8482;SDS011;4278;42.668;23.312;2022-08-03T04:40:40;4.43;;;2.85;;
8482;SDS011;4278;42.668;23.312;2022-08-03T04:43:07;6.25;;;3.20;;
8482;SDS011;4278;42.668;23.312;2022-08-03T04:45:34;3.65;;;3.17;;
8482;SDS011;4278;42.668;23.312;2022-08-03T04:48:01;3.35;;;3.05;;
8482;SDS011;4278;42.668;23.312;2022-08-03T04:50:28;6.65;;;3.70;;
8482;SDS011;4278;42.668;23.312;2022-08-03T04:52:55;5.45;;;3.85;;
8482;SDS011;4278;42.668;23.312;2022-08-03T04:55:25;5.57;;;3.80;;
8482;SDS011;4278;42.668;23.312;2022-08-03T04:57:53;3.50;;;3.20;;
8482;SDS011;4278;42.668;23.312;2022-08-03T05:00:20;6.47;;;3.50;;
8482;SDS011;4278;42.668;23.312;2022-08-03T05:02:46;5.50;;;3.47;;
8482;SDS011;4278;42.668;23.312;2022-08-03T05:05:13;5.03;;;3.67;;
8482;SDS011;4278;42.668;23.312;2022-08-03T05:07:40;4.95;;;3.10;;
8482;SDS011;4278;42.668;23.312;2022-08-03T05:10:08;3.63;;;3.13;;
8482;SDS011;4278;42.668;23.312;2022-08-03T05:12:35;8.80;;;3.67;;
8482;SDS011;4278;42.668;23.312;2022-08-03T05:15:03;5.45;;;3.85;;
8482;SDS011;4278;42.668;23.312;2022-08-03T05:17:30;7.25;;;3.67;;
8482;SDS011;4278;42.668;23.312;2022-08-03T05:19:58;4.35;;;3.95;;
8482;SDS011;4278;42.668;23.312;2022-08-03T05:22:24;6.03;;;3.75;;
8482;SDS011;4278;42.668;23.312;2022-08-03T05:24:51;5.47;;;4.30;;
8482;SDS011;4278;42.668;23.312;2022-08-03T05:27:18;6.38;;;4.40;;
8482;SDS011;4278;42.668;23.312;2022-08-03T05:29:48;5.38;;;3.80;;
8482;SDS011;4278;42.668;23.312;2022-08-03T05:32:35;4.60;;;3.80;;
8482;SDS011;4278;42.668;23.312;2022-08-03T05:35:02;6.68;;;3.60;;
8482;SDS011;4278;42.668;23.312;2022-08-03T05:37:29;4.03;;;3.38;;
8482;SDS011;4278;42.668;23.312;2022-08-03T05:39:56;9.95;;;3.92;;
8482;SDS011;4278;42.668;23.312;2022-08-03T05:42:22;5.88;;;4.13;;
8482;SDS011;4278;42.668;23.312;2022-08-03T05:44:49;7.03;;;4.18;;
8482;SDS011;4278;42.668;23.312;2022-08-03T05:47:15;4.20;;;3.80;;
8482;SDS011;4278;42.668;23.312;2022-08-03T05:49:43;8.10;;;4.50;;
8482;SDS011;4278;42.668;23.312;2022-08-03T05:52:10;7.30;;;4.18;;
8482;SDS011;4278;42.668;23.312;2022-08-03T05:54:37;7.07;;;4.32;;
8482;SDS011;4278;42.668;23.312;2022-08-03T05:57:03;4.70;;;3.88;;
8482;SDS011;4278;42.668;23.312;2022-08-03T05:59:30;6.55;;;3.78;;
8482;SDS011;4278;42.668;23.312;2022-08-03T06:01:57;6.78;;;3.85;;
8482;SDS011;4278;42.668;23.312;2022-08-03T06:04:23;5.63;;;4.15;;
8482;SDS011;4278;42.668;23.312;2022-08-03T06:06:51;5.57;;;3.92;;
8482;SDS011;4278;42.668;23.312;2022-08-03T06:09:18;8.02;;;3.72;;
8482;SDS011;4278;42.668;23.312;2022-08-03T06:11:45;7.53;;;3.65;;
8482;SDS011;4278;42.668;23.312;2022-08-03T06:14:11;3.88;;;3.30;;
8482;SDS011;4278;42.668;23.312;2022-08-03T06:16:38;8.70;;;3.90;;
8482;SDS011;4278;42.668;23.312;2022-08-03T06:19:05;7.45;;;5.57;;
8482;SDS011;4278;42.668;23.312;2022-08-03T06:21:31;6.70;;;4.63;;
8482;SDS011;4278;42.668;23.312;2022-08-03T06:23:59;6.53;;;3.80;;
8482;SDS011;4278;42.668;23.312;2022-08-03T06:26:26;5.88;;;4.25;;
8482;SDS011;4278;42.668;23.312;2022-08-03T06:28:53;5.20;;;3.67;;
8482;SDS011;4278;42.668;23.312;2022-08-03T06:31:20;6.43;;;3.72;;
8482;SDS011;4278;42.668;23.312;2022-08-03T06:33:47;8.52;;;4.00;;
8482;SDS011;4278;42.668;23.312;2022-08-03T06:36:15;6.15;;;3.50;;
8482;SDS011;4278;42.668;23.312;2022-08-03T06:38:41;5.15;;;3.38;;
8482;SDS011;4278;42.668;23.312;2022-08-03T06:41:09;7.57;;;3.25;;
8482;SDS011;4278;42.668;23.312;2022-08-03T06:43:36;5.18;;;3.58;;
8482;SDS011;4278;42.668;23.312;2022-08-03T06:46:02;3.80;;;3.33;;
8482;SDS011;4278;42.668;23.312;2022-08-03T06:48:29;6.07;;;4.05;;
8482;SDS011;4278;42.668;23.312;2022-08-03T06:50:56;7.13;;;4.00;;
8482;SDS011;4278;42.668;23.312;2022-08-03T06:53:23;10.70;;;5.32;;
8482;SDS011;4278;42.668;23.312;2022-08-03T06:55:50;7.13;;;3.83;;
8482;SDS011;4278;42.668;23.312;2022-08-03T06:58:18;5.45;;;4.03;;
8482;SDS011;4278;42.668;23.312;2022-08-03T07:00:45;5.40;;;3.88;;
8482;SDS011;4278;42.668;23.312;2022-08-03T07:03:11;6.53;;;3.80;;
8482;SDS011;4278;42.668;23.312;2022-08-03T07:05:39;6.78;;;5.13;;
8482;SDS011;4278;42.668;23.312;2022-08-03T07:08:06;6.50;;;4.65;;
8482;SDS011;4278;42.668;23.312;2022-08-03T07:10:33;8.68;;;5.15;;
8482;SDS011;4278;42.668;23.312;2022-08-03T07:13:00;8.52;;;4.40;;
8482;SDS011;4278;42.668;23.312;2022-08-03T07:15:28;7.10;;;4.22;;
8482;SDS011;4278;42.668;23.312;2022-08-03T07:17:55;6.55;;;4.18;;
8482;SDS011;4278;42.668;23.312;2022-08-03T07:20:21;8.77;;;5.53;;
8482;SDS011;4278;42.668;23.312;2022-08-03T07:22:48;10.77;;;4.40;;
8482;SDS011;4278;42.668;23.312;2022-08-03T07:25:15;7.00;;;4.22;;
8482;SDS011;4278;42.668;23.312;2022-08-03T07:27:42;5.63;;;3.53;;
8482;SDS011;4278;42.668;23.312;2022-08-03T07:30:09;7.70;;;3.92;;
8482;SDS011;4278;42.668;23.312;2022-08-03T07:32:38;4.38;;;3.45;;
8482;SDS011;4278;42.668;23.312;2022-08-03T07:35:05;5.65;;;3.22;;
8482;SDS011;4278;42.668;23.312;2022-08-03T07:37:32;10.07;;;3.70;;
8482;SDS011;4278;42.668;23.312;2022-08-03T07:39:59;10.43;;;4.45;;
8482;SDS011;4278;42.668;23.312;2022-08-03T07:42:25;7.70;;;4.07;;
8482;SDS011;4278;42.668;23.312;2022-08-03T07:44:52;6.43;;;3.30;;
8482;SDS011;4278;42.668;23.312;2022-08-03T07:47:19;7.43;;;3.83;;
8482;SDS011;4278;42.668;23.312;2022-08-03T07:49:47;5.97;;;4.00;;
8482;SDS011;4278;42.668;23.312;2022-08-03T07:52:13;4.28;;;3.35;;
8482;SDS011;4278;42.668;23.312;2022-08-03T07:54:57;5.10;;;3.70;;
8482;SDS011;4278;42.668;23.312;2022-08-03T07:57:24;5.10;;;3.35;;
8482;SDS011;4278;42.668;23.312;2022-08-03T07:59:51;6.28;;;3.70;;
8482;SDS011;4278;42.668;23.312;2022-08-03T08:02:17;6.47;;;4.25;;
8482;SDS011;4278;42.668;23.312;2022-08-03T08:04:44;9.18;;;7.88;;
8482;SDS011;4278;42.668;23.312;2022-08-03T08:07:12;5.95;;;3.17;;
8482;SDS011;4278;42.668;23.312;2022-08-03T08:09:39;3.10;;;2.53;;
8482;SDS011;4278;42.668;23.312;2022-08-03T08:12:05;4.85;;;2.85;;
8482;SDS011;4278;42.668;23.312;2022-08-03T08:14:32;3.42;;;2.70;;
8482;SDS011;4278;42.668;23.312;2022-08-03T08:16:59;3.75;;;2.40;;
8482;SDS011;4278;42.668;23.312;2022-08-03T08:19:26;5.53;;;2.58;;
8482;SDS011;4278;42.668;23.312;2022-08-03T08:21:54;4.15;;;2.55;;
8482;SDS011;4278;42.668;23.312;2022-08-03T08:24:22;4.72;;;2.72;;
8482;SDS011;4278;42.668;23.312;2022-08-03T08:26:48;3.28;;;2.65;;
8482;SDS011;4278;42.668;23.312;2022-08-03T08:29:15;2.90;;;2.35;;
8482;SDS011;4278;42.668;23.312;2022-08-03T08:31:42;3.95;;;2.78;;
8482;SDS011;4278;42.668;23.312;2022-08-03T08:34:08;3.55;;;2.67;;
8482;SDS011;4278;42.668;23.312;2022-08-03T08:36:36;3.78;;;2.70;;
8482;SDS011;4278;42.668;23.312;2022-08-03T08:39:03;4.75;;;2.60;;
8482;SDS011;4278;42.668;23.312;2022-08-03T08:41:31;4.90;;;2.60;;
8482;SDS011;4278;42.668;23.312;2022-08-03T08:43:59;5.35;;;2.70;;
8482;SDS011;4278;42.668;23.312;2022-08-03T08:46:25;8.02;;;4.90;;
8482;SDS011;4278;42.668;23.312;2022-08-03T08:48:52;3.30;;;2.20;;
8482;SDS011;4278;42.668;23.312;2022-08-03T08:51:19;5.03;;;4.13;;
8482;SDS011;4278;42.668;23.312;2022-08-03T08:53:47;5.35;;;2.20;;
8482;SDS011;4278;42.668;23.312;2022-08-03T08:56:14;3.72;;;2.42;;
8482;SDS011;4278;42.668;23.312;2022-08-03T08:58:46;4.57;;;2.65;;
8482;SDS011;4278;42.668;23.312;2022-08-03T09:01:13;3.88;;;2.50;;
8482;SDS011;4278;42.668;23.312;2022-08-03T09:03:39;3.35;;;2.25;;
8482;SDS011;4278;42.668;23.312;2022-08-03T09:06:06;2.88;;;2.38;;
8482;SDS011;4278;42.668;23.312;2022-08-03T09:08:33;2.78;;;2.58;;
8482;SDS011;4278;42.668;23.312;2022-08-03T09:10:59;3.55;;;2.53;;
8482;SDS011;4278;42.668;23.312;2022-08-03T09:13:26;5.68;;;2.90;;
8482;SDS011;4278;42.668;23.312;2022-08-03T09:16:09;3.75;;;2.22;;
8482;SDS011;4278;42.668;23.312;2022-08-03T09:18:36;3.05;;;2.60;;
8482;SDS011;4278;42.668;23.312;2022-08-03T09:21:12;2.05;;;1.85;;
8482;SDS011;4278;42.668;23.312;2022-08-03T09:23:43;5.30;;;2.30;;
8482;SDS011;4278;42.668;23.312;2022-08-03T09:26:10;2.53;;;1.92;;
8482;SDS011;4278;42.668;23.312;2022-08-03T09:28:36;3.65;;;2.25;;
8482;SDS011;4278;42.668;23.312;2022-08-03T09:31:03;3.72;;;2.00;;
8482;SDS011;4278;42.668;23.312;2022-08-03T09:33:31;5.32;;;2.55;;
8482;SDS011;4278;42.668;23.312;2022-08-03T09:35:58;3.35;;;2.47;;
8482;SDS011;4278;42.668;23.312;2022-08-03T09:38:27;3.20;;;2.17;;
8482;SDS011;4278;42.668;23.312;2022-08-03T09:40:55;2.72;;;2.00;;
8482;SDS011;4278;42.668;23.312;2022-08-03T09:43:21;2.30;;;1.92;;
8482;SDS011;4278;42.668;23.312;2022-08-03T09:45:50;5.38;;;2.28;;
8482;SDS011;4278;42.668;23.312;2022-08-03T09:48:20;2.17;;;1.98;;
8482;SDS011;4278;42.668;23.312;2022-08-03T09:50:49;4.30;;;1.83;;
8482;SDS011;4278;42.668;23.312;2022-08-03T09:53:16;4.25;;;2.20;;
8482;SDS011;4278;42.668;23.312;2022-08-03T09:55:49;3.00;;;2.10;;
8482;SDS011;4278;42.668;23.312;2022-08-03T09:58:15;5.35;;;2.38;;
8482;SDS011;4278;42.668;23.312;2022-08-03T10:00:52;4.88;;;2.40;;
8482;SDS011;4278;42.668;23.312;2022-08-03T10:03:18;7.03;;;2.80;;
8482;SDS011;4278;42.668;23.312;2022-08-03T10:05:45;2.80;;;2.28;;
8482;SDS011;4278;42.668;23.312;2022-08-03T10:08:15;4.65;;;2.63;;
8482;SDS011;4278;42.668;23.312;2022-08-03T10:10:42;5.93;;;2.83;;
8482;SDS011;4278;42.668;23.312;2022-08-03T10:13:09;3.53;;;2.30;;
8482;SDS011;4278;42.668;23.312;2022-08-03T10:15:37;3.95;;;2.28;;
8482;SDS011;4278;42.668;23.312;2022-08-03T10:18:05;3.03;;;2.28;;
8482;SDS011;4278;42.668;23.312;2022-08-03T10:20:32;2.35;;;2.15;;
8482;SDS011;4278;42.668;23.312;2022-08-03T10:23:02;2.78;;;1.90;;
8482;SDS011;4278;42.668;23.312;2022-08-03T10:25:31;5.15;;;2.05;;
8482;SDS011;4278;42.668;23.312;2022-08-03T10:27:59;6.28;;;2.05;;
8482;SDS011;4278;42.668;23.312;2022-08-03T10:30:28;2.28;;;1.90;;
8482;SDS011;4278;42.668;23.312;2022-08-03T10:32:58;3.58;;;1.88;;
8482;SDS011;4278;42.668;23.312;2022-08-03T10:35:26;2.28;;;1.88;;
8482;SDS011;4278;42.668;23.312;2022-08-03T10:37:56;2.50;;;2.13;;
8482;SDS011;4278;42.668;23.312;2022-08-03T10:40:23;2.35;;;2.00;;
8482;SDS011;4278;42.668;23.312;2022-08-03T10:42:53;2.55;;;2.33;;
8482;SDS011;4278;42.668;23.312;2022-08-03T10:45:23;2.92;;;2.47;;
8482;SDS011;4278;42.668;23.312;2022-08-03T10:47:51;2.40;;;2.20;;
8482;SDS011;4278;42.668;23.312;2022-08-03T10:50:18;3.53;;;2.35;;
8482;SDS011;4278;42.668;23.312;2022-08-03T10:52:54;3.70;;;2.10;;
8482;SDS011;4278;42.668;23.312;2022-08-03T10:55:30;2.42;;;2.10;;
8482;SDS011;4278;42.668;23.312;2022-08-03T10:58:16;2.20;;;2.00;;
8482;SDS011;4278;42.668;23.312;2022-08-03T11:01:03;3.67;;;1.90;;
8482;SDS011;4278;42.668;23.312;2022-08-03T11:03:29;6.15;;;2.63;;
8482;SDS011;4278;42.668;23.312;2022-08-03T11:06:13;2.47;;;2.20;;
8482;SDS011;4278;42.668;23.312;2022-08-03T11:08:41;3.30;;;2.00;;
8482;SDS011;4278;42.668;23.312;2022-08-03T11:14:00;2.55;;;2.10;;
8482;SDS011;4278;42.668;23.312;2022-08-03T11:16:29;3.53;;;1.98;;
8482;SDS011;4278;42.668;23.312;2022-08-03T11:18:56;2.30;;;2.10;;
8482;SDS011;4278;42.668;23.312;2022-08-03T11:24:05;2.58;;;1.98;;
8482;SDS011;4278;42.668;23.312;2022-08-03T11:26:32;3.83;;;2.08;;
8482;SDS011;4278;42.668;23.312;2022-08-03T11:31:45;2.33;;;2.10;;
8482;SDS011;4278;42.668;23.312;2022-08-03T11:34:13;3.35;;;1.80;;
8482;SDS011;4278;42.668;23.312;2022-08-03T11:39:36;1.80;;;1.70;;
8482;SDS011;4278;42.668;23.312;2022-08-03T11:44:45;1.80;;;1.60;;
8482;SDS011;4278;42.668;23.312;2022-08-03T11:47:13;3.55;;;1.90;;
8482;SDS011;4278;42.668;23.312;2022-08-03T11:49:42;2.00;;;1.80;;
8482;SDS011;4278;42.668;23.312;2022-08-03T11:52:09;2.35;;;2.00;;
8482;SDS011;4278;42.668;23.312;2022-08-03T11:54:35;3.03;;;1.88;;
8482;SDS011;4278;42.668;23.312;2022-08-03T11:57:02;1.92;;;1.80;;
8482;SDS011;4278;42.668;23.312;2022-08-03T11:59:30;1.75;;;1.65;;
8482;SDS011;4278;42.668;23.312;2022-08-03T12:02:04;5.10;;;1.92;;
8482;SDS011;4278;42.668;23.312;2022-08-03T12:04:32;2.95;;;1.95;;
8482;SDS011;4278;42.668;23.312;2022-08-03T12:07:14;5.53;;;1.92;;
8482;SDS011;4278;42.668;23.312;2022-08-03T12:09:41;6.10;;;2.30;;
8482;SDS011;4278;42.668;23.312;2022-08-03T12:12:08;2.72;;;1.60;;
8482;SDS011;4278;42.668;23.312;2022-08-03T12:14:35;2.97;;;1.80;;
8482;SDS011;4278;42.668;23.312;2022-08-03T12:17:02;4.10;;;2.13;;
8482;SDS011;4278;42.668;23.312;2022-08-03T12:19:41;4.20;;;1.83;;
8482;SDS011;4278;42.668;23.312;2022-08-03T12:22:08;2.15;;;1.95;;
8482;SDS011;4278;42.668;23.312;2022-08-03T12:24:41;2.92;;;1.90;;
8482;SDS011;4278;42.668;23.312;2022-08-03T12:27:08;4.45;;;2.00;;
8482;SDS011;4278;42.668;23.312;2022-08-03T12:29:34;6.22;;;2.03;;
8482;SDS011;4278;42.668;23.312;2022-08-03T12:32:01;2.15;;;1.77;;
8482;SDS011;4278;42.668;23.312;2022-08-03T12:37:10;1.75;;;1.65;;
8482;SDS011;4278;42.668;23.312;2022-08-03T12:39:37;2.30;;;1.77;;
8482;SDS011;4278;42.668;23.312;2022-08-03T12:42:04;2.75;;;2.03;;
8482;SDS011;4278;42.668;23.312;2022-08-03T12:44:31;2.70;;;1.70;;
8482;SDS011;4278;42.668;23.312;2022-08-03T12:46:58;3.20;;;2.45;;
8482;SDS011;4278;42.668;23.312;2022-08-03T12:49:25;2.00;;;1.80;;
8482;SDS011;4278;42.668;23.312;2022-08-03T12:51:57;2.10;;;1.90;;
8482;SDS011;4278;42.668;23.312;2022-08-03T12:54:26;3.88;;;2.00;;
8482;SDS011;4278;42.668;23.312;2022-08-03T12:56:55;2.20;;;1.98;;
8482;SDS011;4278;42.668;23.312;2022-08-03T12:59:22;2.75;;;2.08;;
8482;SDS011;4278;42.668;23.312;2022-08-03T13:04:55;2.20;;;2.00;;
8482;SDS011;4278;42.668;23.312;2022-08-03T13:07:24;2.50;;;2.10;;
8482;SDS011;4278;42.668;23.312;2022-08-03T13:09:52;2.85;;;2.20;;
8482;SDS011;4278;42.668;23.312;2022-08-03T13:12:20;3.45;;;2.10;;
8482;SDS011;4278;42.668;23.312;2022-08-03T13:14:47;2.22;;;2.03;;
8482;SDS011;4278;42.668;23.312;2022-08-03T13:17:14;3.63;;;2.10;;
8482;SDS011;4278;42.668;23.312;2022-08-03T13:19:41;3.22;;;1.90;;
8482;SDS011;4278;42.668;23.312;2022-08-03T13:22:11;4.47;;;1.90;;
8482;SDS011;4278;42.668;23.312;2022-08-03T13:24:38;2.40;;;2.20;;
8482;SDS011;4278;42.668;23.312;2022-08-03T13:27:06;2.60;;;1.52;;
8482;SDS011;4278;42.668;23.312;2022-08-03T13:29:33;2.28;;;1.67;;
8482;SDS011;4278;42.668;23.312;2022-08-03T13:32:00;2.95;;;1.92;;
8482;SDS011;4278;42.668;23.312;2022-08-03T13:34:27;2.40;;;2.20;;
8482;SDS011;4278;42.668;23.312;2022-08-03T13:36:53;2.15;;;1.83;;
8482;SDS011;4278;42.668;23.312;2022-08-03T13:39:20;7.05;;;2.20;;
8482;SDS011;4278;42.668;23.312;2022-08-03T13:41:47;2.40;;;2.20;;
8482;SDS011;4278;42.668;23.312;2022-08-03T13:44:15;3.45;;;1.98;;
8482;SDS011;4278;42.668;23.312;2022-08-03T13:46:43;2.40;;;2.08;;
8482;SDS011;4278;42.668;23.312;2022-08-03T13:49:09;4.75;;;2.33;;
8482;SDS011;4278;42.668;23.312;2022-08-03T13:51:36;2.38;;;2.15;;
8482;SDS011;4278;42.668;23.312;2022-08-03T13:54:03;2.70;;;2.50;;
8482;SDS011;4278;42.668;23.312;2022-08-03T13:56:30;2.50;;;2.30;;
8482;SDS011;4278;42.668;23.312;2022-08-03T13:58:57;3.00;;;2.22;;
8482;SDS011;4278;42.668;23.312;2022-08-03T14:01:25;3.03;;;2.40;;
8482;SDS011;4278;42.668;23.312;2022-08-03T14:03:52;8.82;;;2.65;;
8482;SDS011;4278;42.668;23.312;2022-08-03T14:06:20;3.40;;;2.47;;
8482;SDS011;4278;42.668;23.312;2022-08-03T14:08:47;5.03;;;2.30;;
8482;SDS011;4278;42.668;23.312;2022-08-03T14:11:14;3.10;;;2.45;;
8482;SDS011;4278;42.668;23.312;2022-08-03T14:13:42;3.50;;;2.30;;
8482;SDS011;4278;42.668;23.312;2022-08-03T14:16:09;2.90;;;2.22;;
8482;SDS011;4278;42.668;23.312;2022-08-03T14:18:37;2.97;;;2.60;;
8482;SDS011;4278;42.668;23.312;2022-08-03T14:21:04;3.63;;;2.78;;
8482;SDS011;4278;42.668;23.312;2022-08-03T14:23:31;3.28;;;2.75;;
8482;SDS011;4278;42.668;23.312;2022-08-03T14:25:58;4.45;;;2.72;;
8482;SDS011;4278;42.668;23.312;2022-08-03T14:28:24;4.65;;;2.72;;
8482;SDS011;4278;42.668;23.312;2022-08-03T14:30:51;3.90;;;2.80;;
8482;SDS011;4278;42.668;23.312;2022-08-03T14:33:18;4.78;;;2.78;;
8482;SDS011;4278;42.668;23.312;2022-08-03T14:35:47;6.32;;;2.85;;
8482;SDS011;4278;42.668;23.312;2022-08-03T14:38:14;3.70;;;2.80;;
8482;SDS011;4278;42.668;23.312;2022-08-03T14:40:40;5.30;;;2.70;;
8482;SDS011;4278;42.668;23.312;2022-08-03T14:43:07;4.20;;;2.70;;
8482;SDS011;4278;42.668;23.312;2022-08-03T14:45:34;6.03;;;2.95;;
8482;SDS011;4278;42.668;23.312;2022-08-03T14:48:01;5.07;;;2.80;;
8482;SDS011;4278;42.668;23.312;2022-08-03T14:50:28;2.90;;;2.60;;
8482;SDS011;4278;42.668;23.312;2022-08-03T14:52:56;3.72;;;2.70;;
8482;SDS011;4278;42.668;23.312;2022-08-03T14:55:23;3.00;;;2.70;;
8482;SDS011;4278;42.668;23.312;2022-08-03T14:57:50;4.82;;;2.85;;
8482;SDS011;4278;42.668;23.312;2022-08-03T15:00:16;4.22;;;2.92;;
8482;SDS011;4278;42.668;23.312;2022-08-03T15:02:43;4.18;;;2.90;;
8482;SDS011;4278;42.668;23.312;2022-08-03T15:05:10;3.45;;;3.15;;
8482;SDS011;4278;42.668;23.312;2022-08-03T15:07:36;3.08;;;2.60;;
8482;SDS011;4278;42.668;23.312;2022-08-03T15:10:05;5.55;;;2.75;;
8482;SDS011;4278;42.668;23.312;2022-08-03T15:12:32;3.00;;;2.50;;
8482;SDS011;4278;42.668;23.312;2022-08-03T15:14:58;3.92;;;3.20;;
8482;SDS011;4278;42.668;23.312;2022-08-03T15:17:25;3.97;;;2.47;;
8482;SDS011;4278;42.668;23.312;2022-08-03T15:19:52;5.75;;;3.50;;
8482;SDS011;4278;42.668;23.312;2022-08-03T15:22:19;3.22;;;2.55;;
8482;SDS011;4278;42.668;23.312;2022-08-03T15:24:45;3.47;;;2.97;;
8482;SDS011;4278;42.668;23.312;2022-08-03T15:27:13;4.38;;;3.00;;